Terminal Aerodrome Forecast
Issued by NWS

Home | Current Version | Previous Version | Text Only | Print | Product List | Glossary On
Versions: 1 2 3 4 5 6 7 8 9 10 11 12 13 14 15 16 17 18 19
000
FTUS46 KLOX 281100
TAFBUR
TAF
KBUR 281127Z 2812/0112 VRB03KT P6SM SCT025 OVC040
     FM281400 VRB03KT P6SM BKN025 OVC040
     FM281900 18010KT P6SM VCSH BKN020 OVC035
     FM282100 18012KT 6SM -SHRA BKN015 OVC035
     FM010300 18007KT 5SM -SHRA VCTS BKN015CB OVC025
     FM010600 VRB03KT 5SM -SHRA VCTS BKN015CB OVC025=

USA.gov is the U.S. government's official web portal to all federal, state and local government web resources and services.